sensor_id;sensor_type;location;lat;lon;timestamp;P1;durP1;ratioP1;P2;durP2;ratioP2
66593;SDS011;53450;42.584;23.366;2023-07-20T00:00:25;9.27;;;3.85;;
66593;SDS011;53450;42.584;23.366;2023-07-20T00:02:51;8.60;;;3.65;;
66593;SDS011;53450;42.584;23.366;2023-07-20T00:05:17;7.97;;;3.20;;
66593;SDS011;53450;42.584;23.366;2023-07-20T00:07:50;7.90;;;4.22;;
66593;SDS011;53450;42.584;23.366;2023-07-20T00:10:17;9.98;;;4.20;;
66593;SDS011;53450;42.584;23.366;2023-07-20T00:12:43;10.00;;;3.83;;
66593;SDS011;53450;42.584;23.366;2023-07-20T00:15:13;5.90;;;3.35;;
66593;SDS011;53450;42.584;23.366;2023-07-20T00:17:38;6.45;;;3.55;;
66593;SDS011;53450;42.584;23.366;2023-07-20T00:20:07;7.45;;;3.75;;
66593;SDS011;53450;42.584;23.366;2023-07-20T00:22:35;9.55;;;4.05;;
66593;SDS011;53450;42.584;23.366;2023-07-20T00:25:01;9.65;;;3.40;;
66593;SDS011;53450;42.584;23.366;2023-07-20T00:27:26;11.25;;;3.80;;
66593;SDS011;53450;42.584;23.366;2023-07-20T00:29:54;10.18;;;4.03;;
66593;SDS011;53450;42.584;23.366;2023-07-20T00:32:20;8.18;;;3.78;;
66593;SDS011;53450;42.584;23.366;2023-07-20T00:34:45;7.38;;;3.97;;
66593;SDS011;53450;42.584;23.366;2023-07-20T00:37:11;6.97;;;4.03;;
66593;SDS011;53450;42.584;23.366;2023-07-20T00:39:37;7.65;;;4.10;;
66593;SDS011;53450;42.584;23.366;2023-07-20T00:42:03;7.70;;;4.18;;
66593;SDS011;53450;42.584;23.366;2023-07-20T00:44:29;7.50;;;4.60;;
66593;SDS011;53450;42.584;23.366;2023-07-20T00:46:55;9.13;;;4.35;;
66593;SDS011;53450;42.584;23.366;2023-07-20T00:49:20;11.05;;;4.90;;
66593;SDS011;53450;42.584;23.366;2023-07-20T00:51:47;10.90;;;4.70;;
66593;SDS011;53450;42.584;23.366;2023-07-20T00:54:14;9.02;;;4.70;;
66593;SDS011;53450;42.584;23.366;2023-07-20T00:56:41;6.68;;;4.35;;
66593;SDS011;53450;42.584;23.366;2023-07-20T00:59:08;15.30;;;4.60;;
66593;SDS011;53450;42.584;23.366;2023-07-20T01:01:34;9.52;;;4.88;;
66593;SDS011;53450;42.584;23.366;2023-07-20T01:04:00;9.80;;;4.22;;
66593;SDS011;53450;42.584;23.366;2023-07-20T01:06:31;9.88;;;4.78;;
66593;SDS011;53450;42.584;23.366;2023-07-20T01:09:42;9.38;;;4.80;;
66593;SDS011;53450;42.584;23.366;2023-07-20T01:12:08;9.30;;;4.78;;
66593;SDS011;53450;42.584;23.366;2023-07-20T01:17:04;10.48;;;4.50;;
66593;SDS011;53450;42.584;23.366;2023-07-20T01:19:30;10.77;;;4.97;;
66593;SDS011;53450;42.584;23.366;2023-07-20T01:22:00;10.23;;;3.90;;
66593;SDS011;53450;42.584;23.366;2023-07-20T01:27:50;15.10;;;4.65;;
66593;SDS011;53450;42.584;23.366;2023-07-20T01:33:39;17.05;;;4.63;;
66593;SDS011;53450;42.584;23.366;2023-07-20T01:36:09;15.15;;;4.40;;
66593;SDS011;53450;42.584;23.366;2023-07-20T01:38:36;10.38;;;4.53;;
66593;SDS011;53450;42.584;23.366;2023-07-20T01:41:02;12.73;;;4.78;;
66593;SDS011;53450;42.584;23.366;2023-07-20T01:43:28;9.07;;;4.72;;
66593;SDS011;53450;42.584;23.366;2023-07-20T01:45:54;13.65;;;4.65;;
66593;SDS011;53450;42.584;23.366;2023-07-20T01:48:19;8.63;;;3.92;;
66593;SDS011;53450;42.584;23.366;2023-07-20T01:50:45;8.27;;;4.25;;
66593;SDS011;53450;42.584;23.366;2023-07-20T01:53:11;14.63;;;4.72;;
66593;SDS011;53450;42.584;23.366;2023-07-20T01:55:36;6.95;;;4.55;;
66593;SDS011;53450;42.584;23.366;2023-07-20T01:58:02;7.20;;;4.40;;
66593;SDS011;53450;42.584;23.366;2023-07-20T02:00:29;9.80;;;4.97;;
66593;SDS011;53450;42.584;23.366;2023-07-20T02:02:55;11.20;;;4.63;;
66593;SDS011;53450;42.584;23.366;2023-07-20T02:05:21;7.93;;;4.18;;
66593;SDS011;53450;42.584;23.366;2023-07-20T02:07:47;11.27;;;4.55;;
66593;SDS011;53450;42.584;23.366;2023-07-20T02:10:19;13.30;;;4.55;;
66593;SDS011;53450;42.584;23.366;2023-07-20T02:12:44;8.95;;;4.57;;
66593;SDS011;53450;42.584;23.366;2023-07-20T02:15:10;14.02;;;5.07;;
66593;SDS011;53450;42.584;23.366;2023-07-20T02:17:36;8.77;;;4.70;;
66593;SDS011;53450;42.584;23.366;2023-07-20T02:20:02;12.35;;;4.53;;
66593;SDS011;53450;42.584;23.366;2023-07-20T02:22:28;11.07;;;4.90;;
66593;SDS011;53450;42.584;23.366;2023-07-20T02:24:54;11.43;;;4.60;;
66593;SDS011;53450;42.584;23.366;2023-07-20T02:27:20;15.18;;;4.60;;
66593;SDS011;53450;42.584;23.366;2023-07-20T02:29:46;10.45;;;4.18;;
66593;SDS011;53450;42.584;23.366;2023-07-20T02:32:11;12.90;;;4.60;;
66593;SDS011;53450;42.584;23.366;2023-07-20T02:34:37;9.68;;;3.72;;
66593;SDS011;53450;42.584;23.366;2023-07-20T02:37:03;8.43;;;4.05;;
66593;SDS011;53450;42.584;23.366;2023-07-20T02:39:29;13.18;;;4.00;;
66593;SDS011;53450;42.584;23.366;2023-07-20T02:41:55;12.85;;;4.15;;
66593;SDS011;53450;42.584;23.366;2023-07-20T02:44:21;14.70;;;4.13;;
66593;SDS011;53450;42.584;23.366;2023-07-20T02:46:47;12.82;;;4.10;;
66593;SDS011;53450;42.584;23.366;2023-07-20T02:49:15;14.05;;;3.92;;
66593;SDS011;53450;42.584;23.366;2023-07-20T02:51:41;14.38;;;4.03;;
66593;SDS011;53450;42.584;23.366;2023-07-20T02:54:07;12.75;;;3.85;;
66593;SDS011;53450;42.584;23.366;2023-07-20T02:56:33;11.60;;;3.28;;
66593;SDS011;53450;42.584;23.366;2023-07-20T02:59:00;11.85;;;3.65;;
66593;SDS011;53450;42.584;23.366;2023-07-20T03:01:26;20.58;;;3.70;;
66593;SDS011;53450;42.584;23.366;2023-07-20T03:03:54;13.18;;;3.88;;
66593;SDS011;53450;42.584;23.366;2023-07-20T03:06:20;8.57;;;3.63;;
66593;SDS011;53450;42.584;23.366;2023-07-20T03:08:46;12.43;;;4.35;;
66593;SDS011;53450;42.584;23.366;2023-07-20T03:11:18;15.90;;;4.38;;
66593;SDS011;53450;42.584;23.366;2023-07-20T03:13:44;10.50;;;3.90;;
66593;SDS011;53450;42.584;23.366;2023-07-20T03:16:10;9.00;;;3.92;;
66593;SDS011;53450;42.584;23.366;2023-07-20T03:18:38;11.60;;;4.47;;
66593;SDS011;53450;42.584;23.366;2023-07-20T03:21:07;9.85;;;3.88;;
66593;SDS011;53450;42.584;23.366;2023-07-20T03:23:34;14.00;;;4.65;;
66593;SDS011;53450;42.584;23.366;2023-07-20T03:26:02;15.40;;;4.53;;
66593;SDS011;53450;42.584;23.366;2023-07-20T03:28:30;11.20;;;3.60;;
66593;SDS011;53450;42.584;23.366;2023-07-20T03:30:56;10.15;;;3.58;;
66593;SDS011;53450;42.584;23.366;2023-07-20T03:33:27;11.35;;;3.67;;
66593;SDS011;53450;42.584;23.366;2023-07-20T03:35:56;7.85;;;3.40;;
66593;SDS011;53450;42.584;23.366;2023-07-20T03:38:22;12.05;;;4.13;;
66593;SDS011;53450;42.584;23.366;2023-07-20T03:43:17;7.50;;;3.55;;
66593;SDS011;53450;42.584;23.366;2023-07-20T03:45:43;13.25;;;3.40;;
66593;SDS011;53450;42.584;23.366;2023-07-20T03:48:11;15.30;;;3.60;;
66593;SDS011;53450;42.584;23.366;2023-07-20T03:50:38;13.38;;;4.03;;
66593;SDS011;53450;42.584;23.366;2023-07-20T03:53:03;9.85;;;3.58;;
66593;SDS011;53450;42.584;23.366;2023-07-20T03:55:29;10.23;;;4.07;;
66593;SDS011;53450;42.584;23.366;2023-07-20T03:57:55;18.23;;;3.75;;
66593;SDS011;53450;42.584;23.366;2023-07-20T04:00:20;6.38;;;3.25;;
66593;SDS011;53450;42.584;23.366;2023-07-20T04:02:46;14.02;;;3.60;;
66593;SDS011;53450;42.584;23.366;2023-07-20T04:05:11;9.43;;;3.88;;
66593;SDS011;53450;42.584;23.366;2023-07-20T04:07:37;12.48;;;4.07;;
66593;SDS011;53450;42.584;23.366;2023-07-20T04:10:03;10.00;;;3.35;;
66593;SDS011;53450;42.584;23.366;2023-07-20T04:12:29;11.70;;;3.63;;
66593;SDS011;53450;42.584;23.366;2023-07-20T04:14:54;11.73;;;3.80;;
66593;SDS011;53450;42.584;23.366;2023-07-20T04:17:20;9.45;;;4.20;;
66593;SDS011;53450;42.584;23.366;2023-07-20T04:20:11;7.82;;;3.20;;
66593;SDS011;53450;42.584;23.366;2023-07-20T04:23:02;16.35;;;3.42;;
66593;SDS011;53450;42.584;23.366;2023-07-20T04:25:28;7.55;;;3.38;;
66593;SDS011;53450;42.584;23.366;2023-07-20T04:27:54;11.77;;;3.40;;
66593;SDS011;53450;42.584;23.366;2023-07-20T04:30:20;25.15;;;6.50;;
66593;SDS011;53450;42.584;23.366;2023-07-20T04:32:48;11.60;;;3.60;;
66593;SDS011;53450;42.584;23.366;2023-07-20T04:35:25;10.52;;;3.92;;
66593;SDS011;53450;42.584;23.366;2023-07-20T04:38:20;10.02;;;3.85;;
66593;SDS011;53450;42.584;23.366;2023-07-20T04:40:51;6.45;;;3.60;;
66593;SDS011;53450;42.584;23.366;2023-07-20T04:43:17;25.13;;;4.70;;
66593;SDS011;53450;42.584;23.366;2023-07-20T04:45:44;12.35;;;3.80;;
66593;SDS011;53450;42.584;23.366;2023-07-20T04:48:10;24.08;;;4.28;;
66593;SDS011;53450;42.584;23.366;2023-07-20T04:50:40;14.95;;;3.70;;
66593;SDS011;53450;42.584;23.366;2023-07-20T04:53:07;8.80;;;3.33;;
66593;SDS011;53450;42.584;23.366;2023-07-20T04:55:37;22.83;;;4.32;;
66593;SDS011;53450;42.584;23.366;2023-07-20T04:58:03;10.55;;;3.78;;
66593;SDS011;53450;42.584;23.366;2023-07-20T05:00:31;16.58;;;3.90;;
66593;SDS011;53450;42.584;23.366;2023-07-20T05:02:57;12.35;;;4.05;;
66593;SDS011;53450;42.584;23.366;2023-07-20T05:05:23;31.38;;;5.13;;
66593;SDS011;53450;42.584;23.366;2023-07-20T05:07:49;8.90;;;3.40;;
66593;SDS011;53450;42.584;23.366;2023-07-20T05:10:15;12.48;;;3.58;;
66593;SDS011;53450;42.584;23.366;2023-07-20T05:12:40;15.38;;;4.28;;
66593;SDS011;53450;42.584;23.366;2023-07-20T05:15:06;13.02;;;4.95;;
66593;SDS011;53450;42.584;23.366;2023-07-20T05:17:33;8.13;;;3.88;;
66593;SDS011;53450;42.584;23.366;2023-07-20T05:19:59;17.02;;;4.80;;
66593;SDS011;53450;42.584;23.366;2023-07-20T05:22:25;5.97;;;3.97;;
66593;SDS011;53450;42.584;23.366;2023-07-20T05:24:53;9.77;;;4.60;;
66593;SDS011;53450;42.584;23.366;2023-07-20T05:27:21;9.85;;;4.45;;
66593;SDS011;53450;42.584;23.366;2023-07-20T05:29:46;9.15;;;4.00;;
66593;SDS011;53450;42.584;23.366;2023-07-20T05:32:12;12.45;;;4.43;;
66593;SDS011;53450;42.584;23.366;2023-07-20T05:34:38;20.23;;;5.03;;
66593;SDS011;53450;42.584;23.366;2023-07-20T05:37:10;10.52;;;5.13;;
66593;SDS011;53450;42.584;23.366;2023-07-20T05:39:35;13.88;;;5.10;;
66593;SDS011;53450;42.584;23.366;2023-07-20T05:42:01;14.50;;;4.25;;
66593;SDS011;53450;42.584;23.366;2023-07-20T05:44:29;12.48;;;4.90;;
66593;SDS011;53450;42.584;23.366;2023-07-20T05:46:54;8.65;;;4.47;;
66593;SDS011;53450;42.584;23.366;2023-07-20T05:49:20;12.20;;;4.07;;
66593;SDS011;53450;42.584;23.366;2023-07-20T05:51:48;10.18;;;4.15;;
66593;SDS011;53450;42.584;23.366;2023-07-20T05:54:14;11.07;;;4.40;;
66593;SDS011;53450;42.584;23.366;2023-07-20T05:56:39;11.40;;;5.20;;
66593;SDS011;53450;42.584;23.366;2023-07-20T05:59:05;5.72;;;4.05;;
66593;SDS011;53450;42.584;23.366;2023-07-20T06:01:30;19.27;;;5.90;;
66593;SDS011;53450;42.584;23.366;2023-07-20T06:03:56;10.20;;;4.43;;
66593;SDS011;53450;42.584;23.366;2023-07-20T06:06:22;13.52;;;4.10;;
66593;SDS011;53450;42.584;23.366;2023-07-20T06:08:47;6.32;;;4.30;;
66593;SDS011;53450;42.584;23.366;2023-07-20T06:11:13;9.32;;;4.45;;
66593;SDS011;53450;42.584;23.366;2023-07-20T06:13:38;12.18;;;4.45;;
66593;SDS011;53450;42.584;23.366;2023-07-20T06:16:11;12.23;;;4.65;;
66593;SDS011;53450;42.584;23.366;2023-07-20T06:18:37;13.88;;;4.88;;
66593;SDS011;53450;42.584;23.366;2023-07-20T06:21:03;13.05;;;4.72;;
66593;SDS011;53450;42.584;23.366;2023-07-20T06:23:29;9.88;;;4.68;;
66593;SDS011;53450;42.584;23.366;2023-07-20T06:25:54;14.63;;;4.40;;
66593;SDS011;53450;42.584;23.366;2023-07-20T06:28:20;10.90;;;4.35;;
66593;SDS011;53450;42.584;23.366;2023-07-20T06:30:46;10.13;;;4.55;;
66593;SDS011;53450;42.584;23.366;2023-07-20T06:33:12;15.90;;;4.78;;
66593;SDS011;53450;42.584;23.366;2023-07-20T06:35:37;11.55;;;4.50;;
66593;SDS011;53450;42.584;23.366;2023-07-20T06:38:06;9.38;;;4.53;;
66593;SDS011;53450;42.584;23.366;2023-07-20T06:40:33;17.00;;;5.13;;
66593;SDS011;53450;42.584;23.366;2023-07-20T06:42:59;13.75;;;4.90;;
66593;SDS011;53450;42.584;23.366;2023-07-20T06:45:24;14.60;;;5.43;;
66593;SDS011;53450;42.584;23.366;2023-07-20T06:47:52;15.93;;;4.88;;
66593;SDS011;53450;42.584;23.366;2023-07-20T06:50:18;10.27;;;4.45;;
66593;SDS011;53450;42.584;23.366;2023-07-20T06:52:44;19.58;;;5.32;;
66593;SDS011;53450;42.584;23.366;2023-07-20T06:55:09;11.90;;;5.00;;
66593;SDS011;53450;42.584;23.366;2023-07-20T06:57:35;21.65;;;5.15;;
66593;SDS011;53450;42.584;23.366;2023-07-20T07:00:01;22.63;;;5.70;;
66593;SDS011;53450;42.584;23.366;2023-07-20T07:02:29;14.10;;;4.95;;
66593;SDS011;53450;42.584;23.366;2023-07-20T07:04:54;11.52;;;4.53;;
66593;SDS011;53450;42.584;23.366;2023-07-20T07:07:21;21.48;;;4.57;;
66593;SDS011;53450;42.584;23.366;2023-07-20T07:09:47;16.23;;;4.03;;
66593;SDS011;53450;42.584;23.366;2023-07-20T07:12:13;24.88;;;5.05;;
66593;SDS011;53450;42.584;23.366;2023-07-20T07:14:39;10.52;;;4.07;;
66593;SDS011;53450;42.584;23.366;2023-07-20T07:17:05;9.15;;;4.53;;
66593;SDS011;53450;42.584;23.366;2023-07-20T07:19:32;20.08;;;5.10;;
66593;SDS011;53450;42.584;23.366;2023-07-20T07:21:57;16.83;;;4.20;;
66593;SDS011;53450;42.584;23.366;2023-07-20T07:24:23;15.57;;;4.43;;
66593;SDS011;53450;42.584;23.366;2023-07-20T07:26:49;18.20;;;4.50;;
66593;SDS011;53450;42.584;23.366;2023-07-20T07:29:14;12.85;;;3.80;;
66593;SDS011;53450;42.584;23.366;2023-07-20T07:31:43;19.50;;;4.35;;
66593;SDS011;53450;42.584;23.366;2023-07-20T07:34:09;12.20;;;4.10;;
66593;SDS011;53450;42.584;23.366;2023-07-20T07:36:34;7.95;;;3.60;;
66593;SDS011;53450;42.584;23.366;2023-07-20T07:39:00;13.25;;;4.28;;
66593;SDS011;53450;42.584;23.366;2023-07-20T07:41:28;8.80;;;3.90;;
66593;SDS011;53450;42.584;23.366;2023-07-20T07:43:53;18.13;;;4.55;;
66593;SDS011;53450;42.584;23.366;2023-07-20T07:46:19;22.15;;;4.43;;
66593;SDS011;53450;42.584;23.366;2023-07-20T07:48:44;20.02;;;4.53;;
66593;SDS011;53450;42.584;23.366;2023-07-20T07:51:10;14.70;;;4.00;;
66593;SDS011;53450;42.584;23.366;2023-07-20T07:53:36;14.07;;;4.80;;
66593;SDS011;53450;42.584;23.366;2023-07-20T07:56:03;17.73;;;4.40;;
66593;SDS011;53450;42.584;23.366;2023-07-20T07:58:28;15.93;;;4.15;;
66593;SDS011;53450;42.584;23.366;2023-07-20T08:00:54;14.90;;;4.65;;
66593;SDS011;53450;42.584;23.366;2023-07-20T08:03:20;16.60;;;4.20;;
66593;SDS011;53450;42.584;23.366;2023-07-20T08:05:46;14.90;;;4.07;;
66593;SDS011;53450;42.584;23.366;2023-07-20T08:08:12;15.82;;;4.68;;
66593;SDS011;53450;42.584;23.366;2023-07-20T08:10:38;19.05;;;4.65;;
66593;SDS011;53450;42.584;23.366;2023-07-20T08:13:03;15.52;;;4.18;;
66593;SDS011;53450;42.584;23.366;2023-07-20T08:15:29;10.52;;;4.10;;
66593;SDS011;53450;42.584;23.366;2023-07-20T08:17:55;12.85;;;4.15;;
66593;SDS011;53450;42.584;23.366;2023-07-20T08:20:20;18.42;;;4.30;;
66593;SDS011;53450;42.584;23.366;2023-07-20T08:22:51;16.60;;;3.88;;
66593;SDS011;53450;42.584;23.366;2023-07-20T08:25:20;17.30;;;5.43;;
66593;SDS011;53450;42.584;23.366;2023-07-20T08:27:46;20.70;;;6.43;;
66593;SDS011;53450;42.584;23.366;2023-07-20T08:30:12;22.75;;;6.32;;
66593;SDS011;53450;42.584;23.366;2023-07-20T08:32:41;13.85;;;5.60;;
66593;SDS011;53450;42.584;23.366;2023-07-20T08:35:06;21.40;;;5.93;;
66593;SDS011;53450;42.584;23.366;2023-07-20T08:37:32;11.35;;;4.65;;
66593;SDS011;53450;42.584;23.366;2023-07-20T08:39:58;11.98;;;4.20;;
66593;SDS011;53450;42.584;23.366;2023-07-20T08:42:26;13.05;;;3.92;;
66593;SDS011;53450;42.584;23.366;2023-07-20T08:44:52;7.28;;;2.70;;
66593;SDS011;53450;42.584;23.366;2023-07-20T08:47:19;16.92;;;3.78;;
66593;SDS011;53450;42.584;23.366;2023-07-20T08:49:48;7.80;;;2.90;;
66593;SDS011;53450;42.584;23.366;2023-07-20T08:52:14;9.15;;;3.25;;
66593;SDS011;53450;42.584;23.366;2023-07-20T08:54:40;9.18;;;3.25;;
66593;SDS011;53450;42.584;23.366;2023-07-20T08:57:06;12.80;;;3.47;;
66593;SDS011;53450;42.584;23.366;2023-07-20T08:59:33;18.17;;;3.03;;
66593;SDS011;53450;42.584;23.366;2023-07-20T09:02:01;9.00;;;2.97;;
66593;SDS011;53450;42.584;23.366;2023-07-20T09:04:30;17.80;;;3.40;;
66593;SDS011;53450;42.584;23.366;2023-07-20T09:06:55;11.43;;;3.00;;
66593;SDS011;53450;42.584;23.366;2023-07-20T09:09:22;15.18;;;3.38;;
66593;SDS011;53450;42.584;23.366;2023-07-20T09:11:50;12.38;;;3.10;;
66593;SDS011;53450;42.584;23.366;2023-07-20T09:14:16;11.57;;;2.85;;
66593;SDS011;53450;42.584;23.366;2023-07-20T09:16:52;11.43;;;3.00;;
66593;SDS011;53450;42.584;23.366;2023-07-20T09:19:48;8.63;;;2.80;;
66593;SDS011;53450;42.584;23.366;2023-07-20T09:22:18;12.75;;;2.67;;
66593;SDS011;53450;42.584;23.366;2023-07-20T09:24:44;7.50;;;2.80;;
66593;SDS011;53450;42.584;23.366;2023-07-20T09:27:10;10.15;;;3.30;;
66593;SDS011;53450;42.584;23.366;2023-07-20T09:29:49;5.68;;;2.95;;
66593;SDS011;53450;42.584;23.366;2023-07-20T09:32:19;11.95;;;3.42;;
66593;SDS011;53450;42.584;23.366;2023-07-20T09:34:45;8.88;;;2.75;;
66593;SDS011;53450;42.584;23.366;2023-07-20T09:37:12;8.98;;;2.92;;
66593;SDS011;53450;42.584;23.366;2023-07-20T09:39:46;6.95;;;2.63;;
66593;SDS011;53450;42.584;23.366;2023-07-20T09:42:15;13.52;;;3.00;;
66593;SDS011;53450;42.584;23.366;2023-07-20T09:44:44;14.82;;;3.72;;
66593;SDS011;53450;42.584;23.366;2023-07-20T09:47:10;18.20;;;3.13;;
66593;SDS011;53450;42.584;23.366;2023-07-20T09:49:41;8.35;;;2.63;;
66593;SDS011;53450;42.584;23.366;2023-07-20T09:52:32;11.38;;;2.97;;
66593;SDS011;53450;42.584;23.366;2023-07-20T09:55:25;15.43;;;3.08;;
66593;SDS011;53450;42.584;23.366;2023-07-20T09:58:16;13.57;;;2.83;;
66593;SDS011;53450;42.584;23.366;2023-07-20T10:00:42;6.10;;;2.60;;
66593;SDS011;53450;42.584;23.366;2023-07-20T10:03:13;10.02;;;2.80;;
66593;SDS011;53450;42.584;23.366;2023-07-20T10:05:43;12.68;;;2.88;;
66593;SDS011;53450;42.584;23.366;2023-07-20T10:08:20;14.55;;;2.80;;
66593;SDS011;53450;42.584;23.366;2023-07-20T10:10:52;8.77;;;3.00;;
66593;SDS011;53450;42.584;23.366;2023-07-20T10:13:25;8.63;;;2.70;;
66593;SDS011;53450;42.584;23.366;2023-07-20T10:15:58;13.70;;;2.80;;
66593;SDS011;53450;42.584;23.366;2023-07-20T10:18:38;9.70;;;2.75;;
66593;SDS011;53450;42.584;23.366;2023-07-20T10:21:22;21.92;;;3.10;;
66593;SDS011;53450;42.584;23.366;2023-07-20T10:23:51;10.85;;;3.30;;
66593;SDS011;53450;42.584;23.366;2023-07-20T10:26:16;9.15;;;3.10;;
66593;SDS011;53450;42.584;23.366;2023-07-20T10:28:42;17.60;;;3.60;;
66593;SDS011;53450;42.584;23.366;2023-07-20T10:31:08;14.25;;;3.05;;
66593;SDS011;53450;42.584;23.366;2023-07-20T10:33:37;13.25;;;3.28;;
66593;SDS011;53450;42.584;23.366;2023-07-20T10:36:04;9.63;;;2.88;;
66593;SDS011;53450;42.584;23.366;2023-07-20T10:38:40;6.90;;;2.60;;
66593;SDS011;53450;42.584;23.366;2023-07-20T10:41:39;11.90;;;2.50;;
66593;SDS011;53450;42.584;23.366;2023-07-20T10:44:07;10.15;;;2.97;;
66593;SDS011;53450;42.584;23.366;2023-07-20T10:46:44;24.15;;;3.38;;
66593;SDS011;53450;42.584;23.366;2023-07-20T10:49:10;7.88;;;2.65;;
66593;SDS011;53450;42.584;23.366;2023-07-20T10:51:47;9.13;;;2.72;;
66593;SDS011;53450;42.584;23.366;2023-07-20T10:56:48;12.75;;;2.50;;
66593;SDS011;53450;42.584;23.366;2023-07-20T10:59:18;12.75;;;2.90;;
66593;SDS011;53450;42.584;23.366;2023-07-20T11:01:55;9.38;;;3.00;;
66593;SDS011;53450;42.584;23.366;2023-07-20T11:07:06;13.82;;;3.20;;
66593;SDS011;53450;42.584;23.366;2023-07-20T11:09:35;27.40;;;4.30;;
66593;SDS011;53450;42.584;23.366;2023-07-20T11:12:09;10.60;;;3.30;;
66593;SDS011;53450;42.584;23.366;2023-07-20T11:14:43;12.10;;;2.95;;
66593;SDS011;53450;42.584;23.366;2023-07-20T11:17:19;14.07;;;3.33;;
66593;SDS011;53450;42.584;23.366;2023-07-20T11:19:48;9.25;;;3.40;;
66593;SDS011;53450;42.584;23.366;2023-07-20T11:22:16;10.63;;;3.47;;
66593;SDS011;53450;42.584;23.366;2023-07-20T11:24:43;10.70;;;3.28;;
66593;SDS011;53450;42.584;23.366;2023-07-20T11:27:08;14.95;;;3.13;;
66593;SDS011;53450;42.584;23.366;2023-07-20T11:29:34;23.90;;;3.53;;
66593;SDS011;53450;42.584;23.366;2023-07-20T11:32:01;16.70;;;3.50;;
66593;SDS011;53450;42.584;23.366;2023-07-20T11:34:31;5.43;;;2.88;;
66593;SDS011;53450;42.584;23.366;2023-07-20T11:36:58;7.32;;;3.03;;
66593;SDS011;53450;42.584;23.366;2023-07-20T11:39:27;9.52;;;3.38;;
66593;SDS011;53450;42.584;23.366;2023-07-20T11:41:57;12.32;;;3.55;;
66593;SDS011;53450;42.584;23.366;2023-07-20T11:44:24;7.78;;;2.95;;
66593;SDS011;53450;42.584;23.366;2023-07-20T11:47:20;16.52;;;3.30;;
66593;SDS011;53450;42.584;23.366;2023-07-20T11:50:11;9.45;;;3.72;;
66593;SDS011;53450;42.584;23.366;2023-07-20T11:52:39;18.83;;;4.03;;
66593;SDS011;53450;42.584;23.366;2023-07-20T11:55:05;10.90;;;3.80;;
66593;SDS011;53450;42.584;23.366;2023-07-20T11:57:32;13.30;;;3.47;;
66593;SDS011;53450;42.584;23.366;2023-07-20T12:00:43;14.30;;;3.67;;
66593;SDS011;53450;42.584;23.366;2023-07-20T12:03:12;9.15;;;3.60;;
66593;SDS011;53450;42.584;23.366;2023-07-20T12:05:38;14.50;;;4.18;;
66593;SDS011;53450;42.584;23.366;2023-07-20T12:08:04;11.85;;;4.20;;
66593;SDS011;53450;42.584;23.366;2023-07-20T12:10:29;14.88;;;4.10;;
66593;SDS011;53450;42.584;23.366;2023-07-20T12:13:01;18.60;;;4.18;;
66593;SDS011;53450;42.584;23.366;2023-07-20T12:15:30;15.30;;;4.30;;
66593;SDS011;53450;42.584;23.366;2023-07-20T12:17:59;6.03;;;3.65;;
66593;SDS011;53450;42.584;23.366;2023-07-20T12:20:31;11.32;;;4.63;;
66593;SDS011;53450;42.584;23.366;2023-07-20T12:23:01;12.50;;;4.60;;
66593;SDS011;53450;42.584;23.366;2023-07-20T12:25:37;12.48;;;4.38;;
66593;SDS011;53450;42.584;23.366;2023-07-20T12:28:07;13.85;;;4.53;;
66593;SDS011;53450;42.584;23.366;2023-07-20T12:30:37;17.52;;;4.72;;
66593;SDS011;53450;42.584;23.366;2023-07-20T12:33:04;10.30;;;4.60;;
66593;SDS011;53450;42.584;23.366;2023-07-20T12:35:30;17.30;;;5.25;;
66593;SDS011;53450;42.584;23.366;2023-07-20T12:37:57;14.95;;;4.88;;
66593;SDS011;53450;42.584;23.366;2023-07-20T12:40:22;13.93;;;4.40;;
66593;SDS011;53450;42.584;23.366;2023-07-20T12:42:51;12.07;;;4.35;;
66593;SDS011;53450;42.584;23.366;2023-07-20T12:45:16;10.80;;;3.92;;
66593;SDS011;53450;42.584;23.366;2023-07-20T12:47:44;13.45;;;3.33;;
66593;SDS011;53450;42.584;23.366;2023-07-20T12:50:10;12.50;;;3.75;;
66593;SDS011;53450;42.584;23.366;2023-07-20T12:52:36;7.20;;;3.30;;
66593;SDS011;53450;42.584;23.366;2023-07-20T12:55:04;10.98;;;3.63;;
66593;SDS011;53450;42.584;23.366;2023-07-20T12:57:34;7.10;;;3.08;;
66593;SDS011;53450;42.584;23.366;2023-07-20T13:00:01;11.63;;;3.47;;
66593;SDS011;53450;42.584;23.366;2023-07-20T13:02:31;14.52;;;4.13;;
66593;SDS011;53450;42.584;23.366;2023-07-20T13:04:57;15.73;;;3.80;;
66593;SDS011;53450;42.584;23.366;2023-07-20T13:07:49;13.68;;;3.47;;
66593;SDS011;53450;42.584;23.366;2023-07-20T13:10:40;6.88;;;3.10;;
66593;SDS011;53450;42.584;23.366;2023-07-20T13:13:06;11.20;;;3.90;;
66593;SDS011;53450;42.584;23.366;2023-07-20T13:15:32;11.52;;;3.83;;
66593;SDS011;53450;42.584;23.366;2023-07-20T13:18:05;10.20;;;3.40;;
66593;SDS011;53450;42.584;23.366;2023-07-20T13:20:34;12.45;;;3.15;;
66593;SDS011;53450;42.584;23.366;2023-07-20T13:22:59;14.75;;;4.20;;
66593;SDS011;53450;42.584;23.366;2023-07-20T13:25:25;16.25;;;3.40;;
66593;SDS011;53450;42.584;23.366;2023-07-20T13:27:50;8.98;;;3.22;;
66593;SDS011;53450;42.584;23.366;2023-07-20T13:30:16;7.90;;;2.97;;
66593;SDS011;53450;42.584;23.366;2023-07-20T13:32:45;12.80;;;3.55;;
66593;SDS011;53450;42.584;23.366;2023-07-20T13:35:11;19.50;;;3.35;;
66593;SDS011;53450;42.584;23.366;2023-07-20T13:38:02;14.38;;;3.83;;
66593;SDS011;53450;42.584;23.366;2023-07-20T13:40:53;9.57;;;3.40;;
66593;SDS011;53450;42.584;23.366;2023-07-20T13:43:19;13.68;;;3.65;;
66593;SDS011;53450;42.584;23.366;2023-07-20T13:45:44;12.38;;;3.92;;
66593;SDS011;53450;42.584;23.366;2023-07-20T13:48:10;11.25;;;3.58;;
66593;SDS011;53450;42.584;23.366;2023-07-20T13:50:35;8.30;;;2.90;;
66593;SDS011;53450;42.584;23.366;2023-07-20T13:53:01;11.60;;;2.97;;
66593;SDS011;53450;42.584;23.366;2023-07-20T13:55:28;15.60;;;3.28;;
66593;SDS011;53450;42.584;23.366;2023-07-20T13:57:56;12.25;;;3.30;;
66593;SDS011;53450;42.584;23.366;2023-07-20T14:00:21;5.97;;;2.97;;
66593;SDS011;53450;42.584;23.366;2023-07-20T14:02:47;12.85;;;3.22;;
66593;SDS011;53450;42.584;23.366;2023-07-20T14:05:13;6.78;;;3.13;;
66593;SDS011;53450;42.584;23.366;2023-07-20T14:07:40;10.85;;;3.08;;
66593;SDS011;53450;42.584;23.366;2023-07-20T14:10:07;17.45;;;2.92;;
66593;SDS011;53450;42.584;23.366;2023-07-20T14:12:32;11.00;;;3.00;;
66593;SDS011;53450;42.584;23.366;2023-07-20T14:15:07;11.75;;;3.85;;
66593;SDS011;53450;42.584;23.366;2023-07-20T14:17:32;7.65;;;2.72;;
66593;SDS011;53450;42.584;23.366;2023-07-20T14:19:58;17.33;;;3.10;;
66593;SDS011;53450;42.584;23.366;2023-07-20T14:22:24;9.40;;;3.30;;
66593;SDS011;53450;42.584;23.366;2023-07-20T14:24:49;10.02;;;3.10;;
66593;SDS011;53450;42.584;23.366;2023-07-20T14:27:15;12.18;;;2.85;;
66593;SDS011;53450;42.584;23.366;2023-07-20T14:29:40;9.68;;;2.65;;
66593;SDS011;53450;42.584;23.366;2023-07-20T14:32:09;6.45;;;2.30;;
66593;SDS011;53450;42.584;23.366;2023-07-20T14:34:35;11.93;;;2.90;;
66593;SDS011;53450;42.584;23.366;2023-07-20T14:37:01;10.23;;;2.55;;
66593;SDS011;53450;42.584;23.366;2023-07-20T14:39:27;9.23;;;2.90;;
66593;SDS011;53450;42.584;23.366;2023-07-20T14:41:52;10.38;;;2.70;;
66593;SDS011;53450;42.584;23.366;2023-07-20T14:44:20;12.05;;;3.30;;
66593;SDS011;53450;42.584;23.366;2023-07-20T14:46:46;15.05;;;3.05;;
66593;SDS011;53450;42.584;23.366;2023-07-20T14:49:11;11.57;;;2.85;;